createdAt,value
2023-05-19T00:01:17.501Z,14.10
2023-05-19T00:03:58.992Z,13.80
2023-05-19T00:06:29.288Z,13.25
2023-05-19T00:09:04.141Z,14.13
2023-05-19T00:11:31.151Z,10.60
2023-05-19T00:13:59.802Z,11.82
2023-05-19T00:16:28.403Z,12.68
2023-05-19T00:18:57.122Z,12.60
2023-05-19T00:21:24.023Z,14.13
2023-05-19T00:23:50.781Z,14.68
2023-05-19T00:26:17.798Z,14.73
2023-05-19T00:28:44.573Z,13.18
2023-05-19T00:31:11.413Z,14.10
2023-05-19T00:33:38.216Z,14.63
2023-05-19T00:36:05.803Z,15.13
2023-05-19T00:38:33.880Z,15.10
2023-05-19T00:41:01.868Z,10.20
2023-05-19T00:43:30.191Z,10.10
2023-05-19T00:45:57.690Z,12.65
2023-05-19T00:48:25.694Z,16.77
2023-05-19T00:50:55.537Z,16.30
2023-05-19T00:53:24.497Z,9.98
2023-05-19T00:55:51.377Z,11.75
2023-05-19T00:58:19.101Z,12.95
2023-05-19T01:00:45.970Z,13.65
2023-05-19T01:03:12.940Z,11.23
2023-05-19T01:05:53.654Z,11.27
2023-05-19T01:08:20.759Z,12.40
2023-05-19T01:10:47.558Z,12.95
2023-05-19T01:13:14.945Z,13.82
2023-05-19T01:16:09.902Z,14.20
2023-05-19T01:19:01.819Z,13.55
2023-05-19T01:24:30.535Z,16.05
2023-05-19T01:27:34.767Z,12.88
2023-05-19T01:30:27.274Z,12.02
2023-05-19T01:32:57.567Z,14.90
2023-05-19T01:35:26.180Z,15.77
2023-05-19T01:37:56.553Z,12.63
2023-05-19T01:40:25.323Z,12.05
2023-05-19T01:42:56.142Z,10.45
2023-05-19T01:45:25.398Z,14.70
2023-05-19T01:47:59.540Z,10.65
2023-05-19T01:50:27.009Z,13.23
2023-05-19T01:52:54.246Z,11.27
2023-05-19T01:55:23.345Z,13.05
2023-05-19T01:58:14.480Z,13.13
2023-05-19T02:00:54.033Z,12.00
2023-05-19T02:03:33.124Z,11.27
2023-05-19T02:06:02.866Z,11.52
2023-05-19T02:08:32.748Z,14.43
2023-05-19T02:11:13.590Z,15.68
2023-05-19T02:13:43.995Z,16.25
2023-05-19T02:16:13.472Z,14.00
2023-05-19T02:18:40.634Z,11.63
2023-05-19T02:21:13.054Z,15.95
2023-05-19T02:23:42.075Z,12.50
2023-05-19T02:26:08.859Z,12.57
2023-05-19T02:28:36.744Z,10.93
2023-05-19T02:31:05.275Z,10.82
2023-05-19T02:33:32.377Z,14.95
2023-05-19T02:35:59.324Z,14.07
2023-05-19T02:38:26.483Z,18.92
2023-05-19T02:40:53.483Z,16.02
2023-05-19T02:43:20.315Z,15.60
2023-05-19T02:45:47.058Z,12.10
2023-05-19T02:48:13.915Z,11.27
2023-05-19T02:50:40.705Z,14.82
2023-05-19T02:53:07.522Z,13.35
2023-05-19T02:55:34.249Z,18.08
2023-05-19T02:58:01.052Z,12.85
2023-05-19T03:00:27.818Z,13.35
2023-05-19T03:02:55.492Z,14.43
2023-05-19T03:05:22.329Z,19.83
2023-05-19T03:07:49.063Z,13.98
2023-05-19T03:10:15.922Z,15.68
2023-05-19T03:12:42.684Z,18.52
2023-05-19T03:15:09.814Z,16.05
2023-05-19T03:17:36.827Z,19.35
2023-05-19T03:20:05.399Z,15.52
2023-05-19T03:22:32.310Z,17.02
2023-05-19T03:24:59.116Z,14.00
2023-05-19T03:27:25.885Z,15.02
2023-05-19T03:29:53.962Z,12.50
2023-05-19T03:32:20.864Z,16.23
2023-05-19T03:34:47.690Z,14.73
2023-05-19T03:37:14.610Z,14.45
2023-05-19T03:39:41.355Z,15.63
2023-05-19T03:42:08.293Z,12.68
2023-05-19T03:44:35.076Z,15.40
2023-05-19T03:47:01.764Z,13.52
2023-05-19T03:49:28.494Z,14.38
2023-05-19T03:51:55.192Z,14.98
2023-05-19T03:54:22.537Z,13.27
2023-05-19T03:56:49.384Z,17.88
2023-05-19T03:59:16.235Z,19.75
2023-05-19T04:01:42.989Z,15.43
2023-05-19T04:04:09.777Z,15.88
2023-05-19T04:06:37.687Z,14.52
2023-05-19T04:09:13.048Z,16.58
2023-05-19T04:11:40.405Z,12.93
2023-05-19T04:14:08.014Z,13.00
2023-05-19T04:16:35.584Z,18.50
2023-05-19T04:19:02.443Z,15.23
2023-05-19T04:21:29.250Z,16.05
2023-05-19T04:23:56.041Z,17.83
2023-05-19T04:26:24.788Z,10.98
2023-05-19T04:28:52.094Z,14.27
2023-05-19T04:31:21.605Z,12.63
2023-05-19T04:33:49.660Z,19.95
2023-05-19T04:36:20.680Z,14.35
2023-05-19T04:38:48.001Z,14.55
2023-05-19T04:41:16.531Z,13.63
2023-05-19T04:43:44.655Z,16.55
2023-05-19T04:46:13.841Z,17.33
2023-05-19T04:48:41.215Z,16.77
2023-05-19T04:51:08.120Z,16.15
2023-05-19T04:53:35.087Z,15.18
2023-05-19T04:56:02.496Z,14.32
2023-05-19T04:58:30.095Z,19.17
2023-05-19T05:00:57.840Z,15.77
2023-05-19T05:03:25.305Z,15.27
2023-05-19T05:05:52.466Z,18.00
2023-05-19T05:08:23.349Z,13.50
2023-05-19T05:10:52.404Z,16.87
2023-05-19T05:13:24.011Z,19.23
2023-05-19T05:15:52.950Z,13.52
2023-05-19T05:18:20.586Z,16.27
2023-05-19T05:20:48.452Z,19.67
2023-05-19T05:23:16.683Z,21.92
2023-05-19T05:25:44.689Z,14.02
2023-05-19T05:28:11.535Z,14.75
2023-05-19T05:30:38.595Z,20.48
2023-05-19T05:33:06.285Z,19.33
2023-05-19T05:35:33.400Z,19.45
2023-05-19T05:38:01.759Z,20.55
2023-05-19T05:40:28.706Z,15.68
2023-05-19T05:42:56.208Z,17.00
2023-05-19T05:45:23.495Z,16.40
2023-05-19T05:47:50.990Z,17.95
2023-05-19T05:50:18.818Z,14.35
2023-05-19T05:52:50.998Z,17.17
2023-05-19T05:55:18.463Z,16.63
2023-05-19T05:57:45.392Z,18.17
2023-05-19T06:00:15.885Z,14.52
2023-05-19T06:02:47.353Z,16.48
2023-05-19T06:05:14.366Z,17.20
2023-05-19T06:07:41.683Z,18.60
2023-05-19T06:10:10.021Z,16.88
2023-05-19T06:12:40.601Z,18.23
2023-05-19T06:15:08.131Z,16.38
2023-05-19T06:17:38.159Z,17.42
2023-05-19T06:20:11.694Z,15.02
2023-05-19T06:22:38.492Z,18.33
2023-05-19T06:25:07.016Z,14.77
2023-05-19T06:27:34.826Z,14.57
2023-05-19T06:30:02.349Z,18.88
2023-05-19T06:32:29.870Z,17.80
2023-05-19T06:34:56.751Z,18.55
2023-05-19T06:37:23.956Z,14.30
2023-05-19T06:39:53.162Z,15.80
2023-05-19T06:42:22.566Z,14.68
2023-05-19T06:44:50.123Z,16.58
2023-05-19T06:47:17.482Z,15.43
2023-05-19T06:49:51.860Z,13.95
2023-05-19T06:52:18.651Z,16.25
2023-05-19T06:54:45.472Z,18.85
2023-05-19T06:57:12.336Z,16.83
2023-05-19T06:59:40.923Z,18.20
2023-05-19T07:02:08.181Z,14.10
2023-05-19T07:04:35.579Z,17.73
2023-05-19T07:07:03.023Z,19.42
2023-05-19T07:09:29.922Z,18.13
2023-05-19T07:11:56.807Z,19.52
2023-05-19T07:14:23.748Z,15.95
2023-05-19T07:16:50.608Z,15.80
2023-05-19T07:19:19.666Z,18.17
2023-05-19T07:21:46.929Z,16.27
2023-05-19T07:24:13.777Z,15.55
2023-05-19T07:26:41.395Z,13.70
2023-05-19T07:29:08.310Z,13.98
2023-05-19T07:31:35.094Z,13.82
2023-05-19T07:34:03.831Z,12.70
2023-05-19T07:36:31.291Z,11.88
2023-05-19T07:38:58.224Z,13.05
2023-05-19T07:41:25.068Z,15.20
2023-05-19T07:43:51.848Z,15.32
2023-05-19T07:46:18.637Z,16.42
2023-05-19T07:48:45.677Z,12.07
2023-05-19T07:51:13.110Z,13.65
2023-05-19T07:53:39.995Z,16.88
2023-05-19T07:56:07.107Z,15.15
2023-05-19T07:58:33.985Z,12.70
2023-05-19T08:01:00.986Z,12.85
2023-05-19T08:03:27.894Z,13.48
2023-05-19T08:05:55.016Z,12.68
2023-05-19T08:08:22.036Z,12.77
2023-05-19T08:10:49.006Z,11.65
2023-05-19T08:13:15.853Z,12.63
2023-05-19T08:15:42.895Z,9.40
2023-05-19T08:18:09.820Z,14.43
2023-05-19T08:20:36.737Z,14.68
2023-05-19T08:23:03.506Z,14.20
2023-05-19T08:25:30.382Z,12.85
2023-05-19T08:27:57.165Z,10.25
2023-05-19T08:30:24.269Z,12.35
2023-05-19T08:32:51.222Z,13.95
2023-05-19T08:35:18.147Z,10.60
2023-05-19T08:37:44.940Z,11.93
2023-05-19T08:40:17.576Z,13.65
2023-05-19T08:42:46.036Z,7.90
2023-05-19T08:45:13.577Z,9.60
2023-05-19T08:47:42.419Z,12.23
2023-05-19T08:50:11.452Z,14.30
2023-05-19T08:53:21.053Z,12.70
2023-05-19T08:56:11.796Z,9.50
2023-05-19T09:01:08.482Z,8.32
2023-05-19T09:03:39.266Z,9.50
2023-05-19T09:06:08.801Z,9.95
2023-05-19T09:08:37.186Z,9.63
2023-05-19T09:11:04.212Z,12.00
2023-05-19T09:13:31.135Z,12.00
2023-05-19T09:15:58.526Z,10.52
2023-05-19T09:18:26.778Z,9.38
2023-05-19T09:20:59.743Z,9.18
2023-05-19T09:23:34.029Z,9.70
2023-05-19T09:26:08.040Z,9.10
2023-05-19T09:28:36.393Z,9.35
2023-05-19T09:31:06.874Z,7.97
2023-05-19T09:33:36.233Z,9.55
2023-05-19T09:36:05.900Z,6.90
2023-05-19T09:38:33.437Z,10.07
2023-05-19T09:41:01.662Z,7.63
2023-05-19T09:43:29.531Z,10.93
2023-05-19T09:46:00.306Z,8.85
2023-05-19T09:48:27.995Z,9.30
2023-05-19T09:50:55.061Z,8.30
2023-05-19T09:53:22.593Z,11.00
2023-05-19T09:55:51.007Z,9.90
2023-05-19T09:58:19.226Z,7.43
2023-05-19T10:00:47.782Z,8.38
2023-05-19T10:03:16.518Z,8.15
2023-05-19T10:05:43.840Z,8.38
2023-05-19T10:08:12.414Z,8.55
2023-05-19T10:10:39.555Z,9.52
2023-05-19T10:13:07.247Z,7.82
2023-05-19T10:15:40.894Z,8.23
2023-05-19T10:18:11.947Z,9.75
2023-05-19T10:20:40.146Z,7.22
2023-05-19T10:23:06.934Z,8.00
2023-05-19T10:25:35.798Z,10.02
2023-05-19T10:28:13.938Z,8.73
2023-05-19T10:30:47.501Z,9.65
2023-05-19T10:33:18.772Z,8.65
2023-05-19T10:35:57.602Z,9.23
2023-05-19T10:38:38.576Z,6.30
2023-05-19T10:41:28.546Z,11.00
2023-05-19T10:44:09.419Z,8.05
2023-05-19T10:46:36.361Z,8.50
2023-05-19T10:49:03.324Z,10.98
2023-05-19T10:51:34.505Z,6.82
2023-05-19T10:54:14.503Z,9.73
2023-05-19T10:56:47.155Z,11.23
2023-05-19T10:59:35.085Z,11.27
2023-05-19T11:02:08.740Z,8.70
2023-05-19T11:04:53.605Z,11.48
2023-05-19T11:07:22.344Z,8.45
2023-05-19T11:09:52.876Z,8.40
2023-05-19T11:12:25.334Z,8.87
2023-05-19T11:14:55.909Z,9.52
2023-05-19T11:17:25.646Z,7.13
2023-05-19T11:19:54.821Z,7.75
2023-05-19T11:22:26.953Z,9.00
2023-05-19T11:24:56.836Z,7.78
2023-05-19T11:27:33.333Z,7.10
2023-05-19T11:30:11.629Z,8.40
2023-05-19T11:32:44.431Z,9.55
2023-05-19T11:35:11.628Z,8.10
2023-05-19T11:37:40.524Z,12.45
2023-05-19T11:40:08.079Z,6.75
2023-05-19T11:42:36.920Z,9.38
2023-05-19T11:45:04.896Z,7.72
2023-05-19T11:47:46.478Z,10.88
2023-05-19T11:50:21.645Z,10.32
2023-05-19T11:52:48.590Z,12.65
2023-05-19T11:55:22.105Z,10.15
2023-05-19T12:00:31.229Z,9.02
2023-05-19T12:02:58.200Z,9.43
2023-05-19T12:05:26.309Z,6.72
2023-05-19T12:07:53.578Z,11.02
2023-05-19T12:10:28.838Z,11.45
2023-05-19T12:12:57.234Z,8.60
2023-05-19T12:15:25.414Z,7.13
2023-05-19T12:17:56.560Z,10.40
2023-05-19T12:20:24.049Z,9.52
2023-05-19T12:22:51.856Z,13.10
2023-05-19T12:25:19.135Z,9.38
2023-05-19T12:27:46.245Z,14.20
2023-05-19T12:30:13.405Z,9.98
2023-05-19T12:32:40.219Z,12.60
2023-05-19T12:35:07.451Z,13.07
2023-05-19T12:37:34.918Z,11.23
2023-05-19T12:40:03.945Z,10.18
2023-05-19T12:42:31.503Z,12.65
2023-05-19T12:45:04.548Z,11.57
2023-05-19T12:47:33.453Z,9.55
2023-05-19T12:50:00.302Z,12.82
2023-05-19T12:52:28.990Z,10.75
2023-05-19T12:55:01.458Z,11.30
2023-05-19T12:57:34.598Z,13.65
2023-05-19T13:00:09.886Z,9.80
2023-05-19T13:03:05.809Z,10.10
2023-05-19T13:05:38.534Z,9.82
2023-05-19T13:08:08.292Z,9.57
2023-05-19T13:10:36.308Z,9.70
2023-05-19T13:13:03.996Z,10.43
2023-05-19T13:15:34.575Z,10.43
2023-05-19T13:18:03.815Z,10.93
2023-05-19T13:20:30.856Z,11.07
2023-05-19T13:22:57.880Z,8.98
2023-05-19T13:25:24.811Z,8.38
2023-05-19T13:27:51.700Z,9.35
2023-05-19T13:30:19.560Z,10.05
2023-05-19T13:32:46.668Z,9.23
2023-05-19T13:35:14.923Z,10.38
2023-05-19T13:37:42.334Z,10.02
2023-05-19T13:40:10.070Z,10.02
2023-05-19T13:42:37.875Z,10.60
2023-05-19T13:45:05.541Z,8.95
2023-05-19T13:47:32.412Z,9.52
2023-05-19T13:49:59.298Z,9.25
2023-05-19T13:52:28.207Z,10.85
2023-05-19T13:54:56.792Z,8.27
2023-05-19T13:57:24.378Z,10.45
2023-05-19T14:00:01.597Z,13.98
2023-05-19T14:02:30.300Z,10.07
2023-05-19T14:04:57.590Z,11.77
2023-05-19T14:07:25.531Z,8.48
2023-05-19T14:09:52.796Z,12.80
2023-05-19T14:12:21.596Z,7.30
2023-05-19T14:14:52.202Z,10.15
2023-05-19T14:17:19.044Z,9.25
2023-05-19T14:19:45.992Z,8.75
2023-05-19T14:22:13.375Z,11.88
2023-05-19T14:24:41.506Z,9.23
2023-05-19T14:27:08.391Z,10.85
2023-05-19T14:29:35.407Z,8.32
2023-05-19T14:32:03.462Z,10.80
2023-05-19T14:34:30.487Z,9.32
2023-05-19T14:36:57.284Z,9.75
2023-05-19T14:39:24.032Z,8.30
2023-05-19T14:41:51.959Z,8.52
2023-05-19T14:44:18.897Z,10.80
2023-05-19T14:46:45.803Z,9.77
2023-05-19T14:49:12.547Z,8.57
2023-05-19T14:51:39.297Z,8.40
2023-05-19T14:54:06.111Z,7.28
2023-05-19T14:56:33.025Z,10.55
2023-05-19T14:58:59.883Z,10.30
2023-05-19T15:01:26.701Z,9.35
2023-05-19T15:03:53.599Z,9.38
2023-05-19T15:06:20.644Z,7.68
2023-05-19T15:08:47.516Z,10.32
2023-05-19T15:11:14.298Z,8.00
2023-05-19T15:13:41.049Z,9.55
2023-05-19T15:16:17.401Z,9.45
2023-05-19T15:18:45.348Z,9.52
2023-05-19T15:21:12.478Z,8.30
2023-05-19T15:23:39.325Z,11.63
2023-05-19T15:26:06.747Z,7.78
2023-05-19T15:28:34.212Z,10.38
2023-05-19T15:31:01.097Z,10.93
2023-05-19T15:33:28.026Z,7.55
2023-05-19T15:35:54.846Z,9.45
2023-05-19T15:38:21.689Z,7.32
2023-05-19T15:40:48.403Z,9.95
2023-05-19T15:43:15.278Z,7.97
2023-05-19T15:45:42.022Z,8.82
2023-05-19T15:48:08.832Z,7.75
2023-05-19T15:50:36.431Z,9.18
2023-05-19T15:53:03.524Z,11.13
2023-05-19T15:55:30.425Z,12.00
2023-05-19T15:57:57.265Z,10.55
2023-05-19T16:00:24.213Z,10.60
2023-05-19T16:02:51.252Z,9.32
2023-05-19T16:05:18.350Z,11.32
2023-05-19T16:07:45.489Z,6.75
2023-05-19T16:10:12.445Z,9.52
2023-05-19T16:12:39.208Z,10.30
2023-05-19T16:15:06.727Z,8.45
2023-05-19T16:17:33.901Z,6.80
2023-05-19T16:20:00.799Z,6.93
2023-05-19T16:22:27.648Z,7.15
2023-05-19T16:24:54.389Z,8.50
2023-05-19T16:27:21.381Z,8.15
2023-05-19T16:29:48.146Z,11.10
2023-05-19T16:32:15.033Z,9.30
2023-05-19T16:34:41.826Z,7.28
2023-05-19T16:37:08.672Z,10.25
2023-05-19T16:39:40.191Z,9.38
2023-05-19T16:42:07.322Z,7.13
2023-05-19T16:44:34.087Z,9.65
2023-05-19T16:47:00.845Z,8.43
2023-05-19T16:49:27.639Z,9.75
2023-05-19T16:51:55.717Z,7.90
2023-05-19T16:54:23.384Z,7.97
2023-05-19T16:56:51.212Z,7.20
2023-05-19T16:59:18.055Z,9.50
2023-05-19T17:01:44.889Z,11.85
2023-05-19T17:04:11.842Z,8.05
2023-05-19T17:06:38.640Z,7.85
2023-05-19T17:09:05.533Z,10.00
2023-05-19T17:11:32.396Z,7.50
2023-05-19T17:13:59.372Z,9.38
2023-05-19T17:16:26.176Z,6.45
2023-05-19T17:18:52.946Z,8.38
2023-05-19T17:21:19.893Z,8.07
2023-05-19T17:23:46.662Z,9.00
2023-05-19T17:26:13.473Z,7.95
2023-05-19T17:28:40.409Z,7.45
2023-05-19T17:31:12.204Z,8.00
2023-05-19T17:33:39.369Z,6.93
2023-05-19T17:36:07.365Z,8.50
2023-05-19T17:38:34.309Z,8.25
2023-05-19T17:41:02.557Z,13.00
2023-05-19T17:43:29.466Z,11.80
2023-05-19T17:45:57.628Z,18.60
2023-05-19T17:48:25.870Z,14.13
2023-05-19T17:50:52.662Z,16.48
2023-05-19T17:53:19.906Z,11.52
2023-05-19T17:55:51.484Z,16.98
2023-05-19T17:58:18.994Z,14.43
2023-05-19T18:00:46.076Z,11.05
2023-05-19T18:03:13.237Z,15.15
2023-05-19T18:05:43.221Z,13.45
2023-05-19T18:08:10.780Z,18.33
2023-05-19T18:10:39.444Z,10.98
2023-05-19T18:13:07.343Z,14.98
2023-05-19T18:15:35.196Z,15.93
2023-05-19T18:18:07.510Z,13.18
2023-05-19T18:20:44.215Z,15.43
2023-05-19T18:23:11.434Z,12.80
2023-05-19T18:25:38.343Z,15.50
2023-05-19T18:28:05.290Z,9.35
2023-05-19T18:30:32.280Z,11.65
2023-05-19T18:33:02.102Z,10.57
2023-05-19T18:35:29.191Z,11.57
2023-05-19T18:37:57.414Z,11.90
2023-05-19T18:40:24.635Z,14.18
2023-05-19T18:42:51.528Z,12.77
2023-05-19T18:45:18.432Z,11.45
2023-05-19T18:47:45.777Z,13.40
2023-05-19T18:50:13.018Z,11.27
2023-05-19T18:52:39.901Z,10.75
2023-05-19T18:55:07.285Z,12.43
2023-05-19T18:57:34.057Z,13.52
2023-05-19T19:00:00.856Z,13.98
2023-05-19T19:02:27.651Z,14.65
2023-05-19T19:04:54.465Z,11.30
2023-05-19T19:07:21.267Z,13.80
2023-05-19T19:09:48.002Z,12.23
2023-05-19T19:12:14.902Z,10.38
2023-05-19T19:14:41.766Z,12.93
2023-05-19T19:17:08.538Z,17.60
2023-05-19T19:19:35.409Z,12.48
2023-05-19T19:22:02.214Z,14.00
2023-05-19T19:24:30.814Z,16.42
2023-05-19T19:26:57.592Z,15.38
2023-05-19T19:29:24.389Z,13.75
2023-05-19T19:31:51.194Z,18.77
2023-05-19T19:34:19.828Z,12.35
2023-05-19T19:36:47.778Z,14.15
2023-05-19T19:39:14.829Z,12.10
2023-05-19T19:41:41.678Z,16.50
2023-05-19T19:44:08.500Z,14.15
2023-05-19T19:46:35.786Z,13.18
2023-05-19T19:49:02.605Z,12.73
2023-05-19T19:51:29.629Z,16.95
2023-05-19T19:53:56.515Z,16.73
2023-05-19T19:56:24.737Z,16.20
2023-05-19T19:58:51.629Z,16.60
2023-05-19T20:01:20.475Z,15.52
2023-05-19T20:03:48.011Z,15.60
2023-05-19T20:06:15.323Z,13.70
2023-05-19T20:08:42.177Z,15.38
2023-05-19T20:11:09.046Z,15.45
2023-05-19T20:13:35.870Z,18.45
2023-05-19T20:16:02.757Z,18.95
2023-05-19T20:18:29.979Z,16.92
2023-05-19T20:20:57.028Z,15.88
2023-05-19T20:23:23.802Z,17.50
2023-05-19T20:26:06.639Z,17.05
2023-05-19T20:28:37.435Z,16.10
2023-05-19T20:31:04.728Z,19.17
2023-05-19T20:33:32.013Z,16.58
2023-05-19T20:35:58.828Z,18.00
2023-05-19T20:38:25.753Z,16.70
2023-05-19T20:40:54.238Z,13.20
2023-05-19T20:43:21.268Z,16.75
2023-05-19T20:45:48.327Z,15.57
2023-05-19T20:48:15.979Z,15.50
2023-05-19T20:50:43.054Z,18.30
2023-05-19T20:53:10.002Z,20.27
2023-05-19T20:55:38.232Z,20.33
2023-05-19T20:58:05.450Z,16.10
2023-05-19T21:00:32.830Z,14.70
2023-05-19T21:02:59.991Z,16.65
2023-05-19T21:05:26.839Z,16.42
2023-05-19T21:07:53.600Z,15.23
2023-05-19T21:10:20.537Z,15.45
2023-05-19T21:12:47.478Z,14.00
2023-05-19T21:15:14.469Z,14.50
2023-05-19T21:17:41.254Z,13.98
2023-05-19T21:20:08.811Z,16.25
2023-05-19T21:22:38.277Z,13.88
2023-05-19T21:25:05.539Z,16.33
2023-05-19T21:27:35.375Z,15.73
2023-05-19T21:30:02.417Z,13.25
2023-05-19T21:32:29.738Z,12.10
2023-05-19T21:34:56.711Z,16.55
2023-05-19T21:37:23.472Z,14.45
2023-05-19T21:39:50.328Z,17.80
2023-05-19T21:42:17.205Z,14.95
2023-05-19T21:44:44.332Z,14.18
2023-05-19T21:47:11.067Z,15.40
2023-05-19T21:49:39.981Z,16.60
2023-05-19T21:52:10.310Z,14.30
2023-05-19T21:54:37.151Z,19.10
2023-05-19T21:57:04.161Z,14.48
2023-05-19T21:59:30.957Z,16.10
2023-05-19T22:01:58.390Z,15.35
2023-05-19T22:04:25.433Z,16.23
2023-05-19T22:06:52.440Z,16.65
2023-05-19T22:09:19.239Z,13.60
2023-05-19T22:11:46.303Z,13.88
2023-05-19T22:14:13.214Z,16.02
2023-05-19T22:16:40.042Z,18.90
2023-05-19T22:19:07.046Z,14.70
2023-05-19T22:21:33.858Z,15.95
2023-05-19T22:24:00.633Z,14.27
2023-05-19T22:26:27.424Z,15.18
2023-05-19T22:28:56.549Z,20.70
2023-05-19T22:31:23.343Z,11.45
2023-05-19T22:33:50.124Z,15.98
2023-05-19T22:36:16.972Z,13.25
2023-05-19T22:38:43.761Z,15.55
2023-05-19T22:41:10.618Z,12.25
2023-05-19T22:43:37.955Z,11.15
2023-05-19T22:46:05.077Z,13.85
2023-05-19T22:48:31.905Z,13.20
2023-05-19T22:50:58.717Z,15.77
2023-05-19T22:53:25.599Z,17.33
2023-05-19T22:55:52.445Z,11.68
2023-05-19T22:58:19.204Z,16.10
2023-05-19T23:00:45.991Z,11.50
2023-05-19T23:03:12.870Z,14.77
2023-05-19T23:05:40.560Z,11.13
2023-05-19T23:08:07.470Z,16.05
2023-05-19T23:10:34.269Z,12.35
2023-05-19T23:13:01.041Z,11.80
2023-05-19T23:15:27.780Z,11.95
2023-05-19T23:17:54.681Z,19.55
2023-05-19T23:20:21.490Z,14.32
2023-05-19T23:22:48.285Z,12.85
2023-05-19T23:25:15.094Z,10.73
2023-05-19T23:27:41.870Z,13.65
2023-05-19T23:30:09.088Z,13.60
2023-05-19T23:32:36.042Z,13.77
2023-05-19T23:35:16.993Z,14.32
2023-05-19T23:37:43.904Z,14.80
2023-05-19T23:40:11.915Z,14.40
2023-05-19T23:42:38.802Z,12.65
2023-05-19T23:45:06.345Z,11.95
2023-05-19T23:47:33.174Z,11.95
2023-05-19T23:49:59.992Z,16.20
2023-05-19T23:52:26.752Z,13.75
2023-05-19T23:54:53.606Z,7.93
2023-05-19T23:57:20.431Z,13.57
2023-05-19T23:59:47.313Z,15.68
